createdAt,value
2023-04-04T00:00:31.734Z,4.58
2023-04-04T00:02:58.583Z,4.46
2023-04-04T00:05:28.493Z,4.38
2023-04-04T00:07:58.320Z,3.56
2023-04-04T00:10:51.405Z,4.24
2023-04-04T00:13:21.449Z,4.21
2023-04-04T00:15:48.960Z,4.35
2023-04-04T00:18:16.160Z,4.49
2023-04-04T00:20:43.565Z,4.57
2023-04-04T00:23:12.067Z,4.88
2023-04-04T00:25:39.424Z,4.65
2023-04-04T00:28:09.428Z,4.63
2023-04-04T00:30:38.113Z,4.65
2023-04-04T00:33:06.552Z,4.66
2023-04-04T00:35:33.879Z,4.02
2023-04-04T00:38:12.688Z,4.16
2023-04-04T00:40:50.006Z,4.53
2023-04-04T00:43:18.340Z,4.60
2023-04-04T00:45:59.146Z,4.60
2023-04-04T00:48:26.678Z,4.43
2023-04-04T00:50:57.215Z,4.36
2023-04-04T00:53:28.410Z,4.33
2023-04-04T00:55:55.956Z,4.33
2023-04-04T00:58:33.517Z,4.53
2023-04-04T01:01:02.062Z,4.64
2023-04-04T01:03:30.503Z,4.29
2023-04-04T01:06:01.743Z,3.57
2023-04-04T01:08:33.802Z,3.70
2023-04-04T01:11:28.901Z,4.28
2023-04-04T01:13:56.134Z,4.23
2023-04-04T01:16:24.283Z,4.43
2023-04-04T01:18:51.611Z,4.19
2023-04-04T01:21:21.914Z,4.31
2023-04-04T01:23:55.014Z,4.11
2023-04-04T01:26:23.057Z,4.18
2023-04-04T01:28:50.407Z,4.22
2023-04-04T01:31:20.768Z,4.31
2023-04-04T01:34:03.413Z,4.34
2023-04-04T01:36:53.703Z,4.36
2023-04-04T01:39:36.054Z,4.44
2023-04-04T01:42:05.724Z,4.46
2023-04-04T01:44:34.076Z,4.49
2023-04-04T01:47:03.727Z,4.40
2023-04-04T01:49:32.721Z,4.56
2023-04-04T01:52:04.412Z,4.42
2023-04-04T01:54:34.208Z,4.32
2023-04-04T01:57:00.932Z,4.42
2023-04-04T01:59:30.754Z,4.54
2023-04-04T02:01:58.256Z,4.62
2023-04-04T02:04:25.034Z,4.52
2023-04-04T02:06:52.730Z,4.54
2023-04-04T02:09:22.680Z,4.54
2023-04-04T02:11:51.283Z,4.72
2023-04-04T02:14:19.963Z,4.33
2023-04-04T02:16:49.456Z,4.17
2023-04-04T02:19:17.213Z,4.31
2023-04-04T02:21:45.232Z,4.33
2023-04-04T02:24:13.349Z,4.39
2023-04-04T02:26:42.954Z,4.59
2023-04-04T02:29:15.172Z,4.55
2023-04-04T02:31:45.282Z,4.43
2023-04-04T02:34:15.756Z,4.01
2023-04-04T02:36:42.698Z,4.24
2023-04-04T02:39:10.860Z,4.29
2023-04-04T02:41:37.761Z,4.45
2023-04-04T02:44:08.438Z,4.46
2023-04-04T02:46:36.076Z,4.42
2023-04-04T02:49:03.868Z,4.53
2023-04-04T02:51:31.144Z,4.51
2023-04-04T02:54:01.004Z,4.44
2023-04-04T02:56:29.669Z,4.09
2023-04-04T02:58:57.899Z,3.87
2023-04-04T03:01:27.392Z,4.30
2023-04-04T03:03:55.028Z,4.31
2023-04-04T03:06:22.738Z,4.38
2023-04-04T03:08:49.456Z,4.43
2023-04-04T03:11:22.726Z,4.37
2023-04-04T03:13:51.601Z,4.37
2023-04-04T03:16:20.273Z,4.56
2023-04-04T03:18:48.735Z,4.50
2023-04-04T03:21:16.769Z,4.28
2023-04-04T03:23:44.830Z,4.15
2023-04-04T03:26:11.912Z,4.39
2023-04-04T03:28:39.265Z,4.37
2023-04-04T03:31:07.567Z,4.31
2023-04-04T03:33:41.214Z,4.39
2023-04-04T03:36:12.902Z,4.34
2023-04-04T03:38:47.912Z,4.37
2023-04-04T03:41:16.202Z,4.44
2023-04-04T03:43:43.307Z,4.58
2023-04-04T03:46:11.370Z,4.58
2023-04-04T03:48:40.725Z,4.51
2023-04-04T03:51:09.474Z,4.48
2023-04-04T03:53:41.616Z,4.41
2023-04-04T03:56:08.363Z,4.55
2023-04-04T03:58:35.865Z,4.44
2023-04-04T04:01:03.933Z,4.42
2023-04-04T04:03:33.658Z,4.20
2023-04-04T04:06:03.649Z,4.16
2023-04-04T04:08:30.281Z,3.44
2023-04-04T04:10:57.762Z,3.70
2023-04-04T04:13:24.740Z,3.91
2023-04-04T04:15:54.750Z,3.80
2023-04-04T04:18:22.793Z,4.02
2023-04-04T04:20:50.330Z,4.27
2023-04-04T04:23:16.768Z,4.15
2023-04-04T04:25:44.037Z,4.52
2023-04-04T04:28:12.523Z,4.55
2023-04-04T04:30:39.720Z,4.52
2023-04-04T04:33:07.005Z,4.63
2023-04-04T04:35:38.479Z,4.60
2023-04-04T04:38:06.674Z,4.49
2023-04-04T04:40:34.253Z,4.41
2023-04-04T04:43:08.562Z,4.59
2023-04-04T04:45:35.939Z,4.51
2023-04-04T04:48:03.240Z,4.59
2023-04-04T04:50:30.109Z,4.54
2023-04-04T04:52:57.484Z,4.69
2023-04-04T04:55:24.785Z,4.47
2023-04-04T04:57:52.123Z,4.19
2023-04-04T05:00:23.704Z,4.55
2023-04-04T05:02:50.536Z,4.26
2023-04-04T05:05:17.412Z,3.60
2023-04-04T05:07:47.362Z,3.75
2023-04-04T05:10:14.052Z,4.17
2023-04-04T05:12:44.829Z,4.29
2023-04-04T05:15:12.340Z,4.36
2023-04-04T05:17:39.744Z,4.47
2023-04-04T05:20:11.060Z,4.52
2023-04-04T05:22:43.304Z,4.67
2023-04-04T05:25:12.394Z,4.70
2023-04-04T05:27:40.033Z,4.69
2023-04-04T05:30:11.159Z,4.67
2023-04-04T05:32:39.148Z,4.73
2023-04-04T05:35:07.008Z,4.88
2023-04-04T05:37:38.518Z,4.63
2023-04-04T05:40:07.653Z,5.03
2023-04-04T05:42:35.645Z,4.94
2023-04-04T05:45:03.783Z,5.19
2023-04-04T05:47:31.160Z,5.11
2023-04-04T05:49:59.164Z,4.73
2023-04-04T05:52:25.967Z,4.57
2023-04-04T05:54:54.873Z,5.08
2023-04-04T05:57:23.428Z,5.48
2023-04-04T05:59:53.970Z,5.13
2023-04-04T06:02:23.312Z,4.54
2023-04-04T06:04:51.175Z,5.45
2023-04-04T06:07:19.674Z,5.09
2023-04-04T06:09:50.810Z,5.23
2023-04-04T06:12:22.131Z,5.80
2023-04-04T06:14:53.332Z,5.28
2023-04-04T06:17:21.451Z,5.09
2023-04-04T06:22:38.652Z,5.54
2023-04-04T06:25:11.599Z,5.47
2023-04-04T06:27:41.502Z,5.81
2023-04-04T06:30:12.162Z,5.76
2023-04-04T06:32:40.694Z,5.96
2023-04-04T06:35:09.671Z,6.00
2023-04-04T06:37:38.054Z,6.46
2023-04-04T06:40:06.539Z,6.90
2023-04-04T06:42:35.741Z,6.72
2023-04-04T06:45:03.941Z,7.28
2023-04-04T06:47:30.933Z,7.62
2023-04-04T06:49:58.152Z,7.32
2023-04-04T06:52:26.994Z,7.45
2023-04-04T06:54:54.142Z,7.66
2023-04-04T06:57:22.004Z,7.24
2023-04-04T06:59:48.878Z,8.00
2023-04-04T07:02:16.175Z,6.84
2023-04-04T07:04:47.242Z,7.92
2023-04-04T07:07:14.631Z,8.49
2023-04-04T07:09:46.315Z,8.73
2023-04-04T07:12:24.944Z,9.05
2023-04-04T07:14:52.946Z,9.50
2023-04-04T07:17:24.684Z,9.92
2023-04-04T07:19:53.389Z,10.82
2023-04-04T07:22:20.383Z,10.38
2023-04-04T07:24:48.347Z,9.95
2023-04-04T07:27:16.218Z,10.41
2023-04-04T07:29:43.766Z,10.69
2023-04-04T07:32:14.598Z,9.69
2023-04-04T07:34:41.945Z,10.67
2023-04-04T07:37:08.839Z,10.30
2023-04-04T07:39:39.016Z,10.19
2023-04-04T07:42:09.169Z,9.74
2023-04-04T07:44:37.417Z,10.48
2023-04-04T07:47:09.779Z,10.70
2023-04-04T07:49:38.387Z,10.60
2023-04-04T07:52:05.502Z,10.76
2023-04-04T07:54:34.356Z,10.72
2023-04-04T07:57:01.432Z,11.56
2023-04-04T07:59:29.721Z,12.01
2023-04-04T08:01:56.970Z,11.85
2023-04-04T08:04:23.765Z,10.56
2023-04-04T08:06:52.705Z,10.29
2023-04-04T08:09:24.127Z,10.02
2023-04-04T08:11:52.807Z,10.41
2023-04-04T08:14:20.767Z,11.46
2023-04-04T08:16:48.193Z,10.73
2023-04-04T08:19:16.812Z,10.18
2023-04-04T08:21:45.044Z,10.36
2023-04-04T08:24:15.377Z,11.05
2023-04-04T08:26:45.228Z,11.21
2023-04-04T08:29:18.431Z,9.89
2023-04-04T08:31:45.612Z,10.48
2023-04-04T08:34:13.008Z,10.22
2023-04-04T08:36:40.884Z,10.41
2023-04-04T08:39:08.051Z,10.57
2023-04-04T08:41:35.841Z,10.56
2023-04-04T08:44:07.342Z,11.04
2023-04-04T08:46:35.378Z,10.90
2023-04-04T08:49:05.108Z,11.99
2023-04-04T08:51:33.001Z,11.34
2023-04-04T08:54:00.525Z,11.67
2023-04-04T08:56:29.083Z,11.86
2023-04-04T08:58:55.969Z,12.49
2023-04-04T09:01:23.309Z,12.27
2023-04-04T09:03:51.669Z,12.10
2023-04-04T09:06:20.633Z,11.35
2023-04-04T09:08:49.194Z,12.82
2023-04-04T09:11:20.845Z,11.13
2023-04-04T09:13:55.269Z,11.52
2023-04-04T09:16:24.129Z,11.06
2023-04-04T09:18:53.228Z,12.18
2023-04-04T09:21:20.103Z,13.39
2023-04-04T09:23:48.457Z,13.30
2023-04-04T09:26:19.836Z,13.28
2023-04-04T09:28:54.582Z,12.02
2023-04-04T09:31:24.390Z,12.19
2023-04-04T09:33:51.738Z,13.12
2023-04-04T09:36:19.553Z,14.42
2023-04-04T09:38:49.736Z,14.65
2023-04-04T09:41:17.577Z,14.44
2023-04-04T09:43:48.019Z,12.75
2023-04-04T09:46:18.128Z,12.33
2023-04-04T09:48:50.810Z,12.74
2023-04-04T09:51:18.056Z,12.29
2023-04-04T09:53:49.126Z,11.98
2023-04-04T09:56:16.526Z,12.92
2023-04-04T09:59:02.730Z,12.00
2023-04-04T10:01:32.580Z,11.48
2023-04-04T10:04:00.642Z,9.71
2023-04-04T10:06:27.489Z,11.90
2023-04-04T10:08:55.507Z,13.22
2023-04-04T10:11:34.312Z,11.31
2023-04-04T10:14:04.129Z,12.80
2023-04-04T10:16:37.453Z,13.96
2023-04-04T10:19:05.080Z,13.29
2023-04-04T10:21:32.128Z,13.01
2023-04-04T10:24:00.516Z,12.20
2023-04-04T10:26:28.493Z,12.92
2023-04-04T10:28:58.016Z,12.85
2023-04-04T10:31:26.405Z,12.22
2023-04-04T10:34:13.392Z,14.07
2023-04-04T10:37:03.264Z,14.55
2023-04-04T10:39:34.243Z,14.46
2023-04-04T10:42:06.564Z,13.89
2023-04-04T10:44:34.013Z,11.87
2023-04-04T10:47:24.045Z,12.46
2023-04-04T10:49:54.889Z,12.92
2023-04-04T10:52:24.164Z,11.17
2023-04-04T10:54:55.085Z,12.41
2023-04-04T10:57:23.426Z,13.48
2023-04-04T11:00:03.846Z,14.75
2023-04-04T11:02:50.268Z,15.29
2023-04-04T11:05:24.164Z,15.45
2023-04-04T11:08:06.943Z,14.74
2023-04-04T11:10:58.459Z,14.67
2023-04-04T11:13:32.558Z,13.24
2023-04-04T11:16:01.737Z,14.77
2023-04-04T11:18:39.719Z,14.90
2023-04-04T11:21:20.025Z,14.57
2023-04-04T11:23:50.848Z,15.55
2023-04-04T11:26:18.829Z,14.27
2023-04-04T11:28:46.507Z,15.11
2023-04-04T11:31:23.146Z,14.56
2023-04-04T11:33:55.993Z,15.30
2023-04-04T11:36:42.554Z,14.56
2023-04-04T11:39:23.786Z,14.39
2023-04-04T11:41:55.770Z,13.70
2023-04-04T11:44:25.095Z,14.52
2023-04-04T11:47:13.751Z,13.16
2023-04-04T11:49:48.094Z,11.67
2023-04-04T11:52:18.106Z,12.45
2023-04-04T11:54:48.039Z,12.48
2023-04-04T11:57:17.403Z,13.13
2023-04-04T11:59:47.739Z,13.76
2023-04-04T12:02:26.612Z,14.75
2023-04-04T12:04:59.368Z,15.12
2023-04-04T12:07:27.903Z,14.63
2023-04-04T12:10:00.988Z,15.24
2023-04-04T12:12:29.354Z,15.63
2023-04-04T12:15:10.528Z,14.41
2023-04-04T12:17:46.018Z,14.57
2023-04-04T12:20:17.414Z,15.14
2023-04-04T12:22:45.600Z,12.32
2023-04-04T12:25:21.102Z,11.95
2023-04-04T12:27:50.019Z,12.99
2023-04-04T12:30:17.966Z,13.47
2023-04-04T12:32:48.129Z,13.68
2023-04-04T12:35:30.564Z,13.58
2023-04-04T12:38:01.499Z,13.24
2023-04-04T12:40:38.946Z,13.22
2023-04-04T12:43:06.954Z,12.87
2023-04-04T12:45:38.089Z,13.29
2023-04-04T12:48:10.153Z,13.04
2023-04-04T12:50:48.781Z,13.76
2023-04-04T12:53:27.959Z,14.08
2023-04-04T12:55:57.702Z,13.17
2023-04-04T12:58:26.102Z,15.14
2023-04-04T13:00:56.881Z,14.76
2023-04-04T13:03:24.759Z,12.91
2023-04-04T13:05:52.894Z,12.23
2023-04-04T13:08:21.301Z,12.60
2023-04-04T13:11:01.476Z,11.91
2023-04-04T13:16:15.961Z,11.62
2023-04-04T13:18:45.468Z,13.07
2023-04-04T13:21:12.560Z,13.53
2023-04-04T13:23:41.666Z,14.72
2023-04-04T13:26:14.346Z,14.65
2023-04-04T13:28:43.757Z,15.14
2023-04-04T13:31:12.284Z,14.96
2023-04-04T13:33:39.294Z,16.29
2023-04-04T13:36:06.439Z,15.76
2023-04-04T13:38:34.842Z,14.21
2023-04-04T13:41:02.746Z,15.02
2023-04-04T13:43:32.508Z,14.65
2023-04-04T13:45:59.692Z,14.75
2023-04-04T13:48:27.050Z,13.19
2023-04-04T13:50:55.630Z,12.79
2023-04-04T13:53:22.857Z,12.28
2023-04-04T13:58:20.848Z,13.23
2023-04-04T14:00:52.873Z,11.85
2023-04-04T14:03:20.254Z,12.30
2023-04-04T14:05:47.173Z,12.44
2023-04-04T14:08:14.580Z,13.92
2023-04-04T14:10:42.624Z,13.34
2023-04-04T14:13:10.718Z,11.95
2023-04-04T14:15:38.271Z,14.12
2023-04-04T14:18:05.260Z,14.00
2023-04-04T14:20:35.156Z,12.37
2023-04-04T14:23:03.850Z,11.80
2023-04-04T14:25:34.039Z,11.29
2023-04-04T14:28:06.702Z,11.81
2023-04-04T14:30:37.402Z,11.55
2023-04-04T14:33:05.802Z,12.69
2023-04-04T14:35:33.278Z,12.65
2023-04-04T14:38:00.256Z,11.72
2023-04-04T14:40:29.823Z,11.09
2023-04-04T14:42:59.436Z,12.75
2023-04-04T14:45:26.149Z,12.21
2023-04-04T14:48:13.320Z,12.43
2023-04-04T14:50:43.229Z,12.61
2023-04-04T14:53:11.542Z,11.87
2023-04-04T14:55:40.851Z,12.50
2023-04-04T14:58:09.333Z,12.01
2023-04-04T15:00:39.241Z,12.35
2023-04-04T15:03:09.442Z,12.40
2023-04-04T15:05:39.235Z,12.69
2023-04-04T15:08:17.664Z,13.28
2023-04-04T15:10:49.148Z,11.78
2023-04-04T15:13:16.983Z,11.74
2023-04-04T15:15:45.678Z,12.90
2023-04-04T15:18:42.583Z,14.08
2023-04-04T15:21:12.339Z,12.68
2023-04-04T15:23:40.934Z,11.70
2023-04-04T15:26:08.267Z,11.82
2023-04-04T15:28:38.621Z,11.24
2023-04-04T15:31:07.045Z,11.39
2023-04-04T15:33:37.572Z,10.69
2023-04-04T15:36:05.738Z,11.38
2023-04-04T15:38:39.526Z,12.10
2023-04-04T15:41:08.487Z,13.02
2023-04-04T15:43:35.905Z,14.21
2023-04-04T15:46:10.116Z,13.16
2023-04-04T15:48:37.469Z,12.71
2023-04-04T15:51:04.484Z,11.76
2023-04-04T15:53:35.867Z,11.94
2023-04-04T15:56:04.569Z,11.96
2023-04-04T15:58:32.203Z,11.66
2023-04-04T16:00:58.850Z,12.15
2023-04-04T16:03:26.061Z,11.93
2023-04-04T16:05:55.208Z,11.93
2023-04-04T16:08:23.568Z,11.08
2023-04-04T16:10:51.018Z,11.57
2023-04-04T16:13:18.734Z,13.04
2023-04-04T16:15:45.511Z,12.45
2023-04-04T16:18:14.631Z,12.45
2023-04-04T16:20:43.223Z,12.11
2023-04-04T16:23:09.851Z,12.50
2023-04-04T16:25:37.591Z,12.50
2023-04-04T16:28:06.122Z,12.61
2023-04-04T16:30:33.921Z,13.61
2023-04-04T16:33:03.926Z,12.79
2023-04-04T16:35:44.115Z,13.34
2023-04-04T16:38:11.588Z,13.01
2023-04-04T16:40:39.550Z,11.79
2023-04-04T16:43:07.193Z,12.25
2023-04-04T16:45:34.511Z,12.44
2023-04-04T16:48:02.865Z,11.92
2023-04-04T16:50:31.048Z,11.61
2023-04-04T16:53:03.386Z,12.00
2023-04-04T16:55:30.210Z,12.06
2023-04-04T16:57:57.989Z,11.50
2023-04-04T17:00:31.292Z,11.43
2023-04-04T17:02:59.505Z,10.32
2023-04-04T17:05:28.332Z,10.38
2023-04-04T17:07:57.921Z,11.13
2023-04-04T17:10:24.828Z,11.01
2023-04-04T17:12:54.218Z,10.76
2023-04-04T17:15:21.466Z,11.04
2023-04-04T17:17:49.020Z,11.20
2023-04-04T17:20:22.584Z,11.64
2023-04-04T17:22:52.678Z,11.74
2023-04-04T17:25:23.342Z,13.04
2023-04-04T17:27:52.445Z,12.29
2023-04-04T17:30:23.381Z,11.48
2023-04-04T17:32:56.174Z,11.50
2023-04-04T17:35:25.570Z,11.28
2023-04-04T17:37:57.434Z,11.90
2023-04-04T17:40:26.285Z,11.72
2023-04-04T17:42:54.098Z,11.69
2023-04-04T17:45:30.091Z,12.00
2023-04-04T17:48:00.054Z,11.03
2023-04-04T17:50:35.100Z,11.07
2023-04-04T17:53:08.685Z,11.58
2023-04-04T17:55:37.871Z,11.84
2023-04-04T17:58:08.169Z,11.91
2023-04-04T18:00:37.387Z,11.97
2023-04-04T18:03:13.517Z,11.87
2023-04-04T18:05:43.104Z,11.97
2023-04-04T18:08:22.822Z,11.96
2023-04-04T18:10:52.730Z,11.75
2023-04-04T18:13:19.569Z,11.59
2023-04-04T18:15:50.950Z,11.43
2023-04-04T18:18:18.072Z,11.34
2023-04-04T18:20:44.605Z,11.36
2023-04-04T18:23:14.173Z,11.29
2023-04-04T18:25:41.119Z,11.23
2023-04-04T18:28:09.574Z,11.21
2023-04-04T18:30:41.119Z,11.18
2023-04-04T18:33:08.940Z,10.94
2023-04-04T18:35:35.966Z,10.89
2023-04-04T18:38:07.613Z,10.82
2023-04-04T18:40:34.545Z,10.70
2023-04-04T18:43:02.957Z,10.63
2023-04-04T18:45:39.494Z,10.57
2023-04-04T18:48:06.937Z,10.49
2023-04-04T18:50:34.797Z,10.30
2023-04-04T18:53:02.948Z,10.18
2023-04-04T18:55:30.802Z,10.02
2023-04-04T18:58:00.653Z,9.49
2023-04-04T19:00:28.437Z,9.47
2023-04-04T19:02:57.790Z,9.46
2023-04-04T19:05:25.056Z,9.55
2023-04-04T19:07:54.540Z,9.42
2023-04-04T19:10:21.973Z,9.01
2023-04-04T19:12:48.796Z,9.24
2023-04-04T19:15:15.658Z,9.34
2023-04-04T19:17:42.727Z,9.46
2023-04-04T19:20:11.190Z,9.03
2023-04-04T19:22:38.624Z,8.82
2023-04-04T19:25:05.753Z,8.94
2023-04-04T19:27:32.452Z,8.89
2023-04-04T19:30:00.127Z,8.96
2023-04-04T19:32:28.177Z,8.64
2023-04-04T19:34:55.350Z,8.66
2023-04-04T19:37:21.990Z,8.65
2023-04-04T19:39:50.442Z,8.59
2023-04-04T19:42:19.514Z,8.43
2023-04-04T19:44:47.063Z,8.50
2023-04-04T19:47:20.934Z,8.40
2023-04-04T19:49:51.377Z,8.51
2023-04-04T19:52:22.640Z,8.21
2023-04-04T19:54:49.202Z,8.05
2023-04-04T19:57:18.606Z,8.24
2023-04-04T19:59:51.983Z,8.36
2023-04-04T20:02:21.498Z,8.16
2023-04-04T20:04:49.412Z,8.19
2023-04-04T20:07:16.112Z,7.85
2023-04-04T20:09:42.997Z,7.99
2023-04-04T20:12:12.115Z,7.87
2023-04-04T20:14:39.284Z,7.86
2023-04-04T20:17:05.783Z,7.88
2023-04-04T20:19:33.997Z,7.69
2023-04-04T20:22:00.570Z,7.70
2023-04-04T20:24:28.618Z,7.93
2023-04-04T20:26:57.119Z,7.81
2023-04-04T20:29:31.759Z,7.46
2023-04-04T20:32:00.184Z,7.28
2023-04-04T20:34:46.500Z,7.38
2023-04-04T20:37:21.818Z,7.36
2023-04-04T20:40:01.402Z,7.32
2023-04-04T20:42:28.372Z,7.25
2023-04-04T20:44:55.627Z,7.03
2023-04-04T20:47:29.193Z,6.97
2023-04-04T20:49:55.707Z,6.90
2023-04-04T20:52:22.994Z,7.00
2023-04-04T20:54:49.458Z,6.89
2023-04-04T20:57:22.964Z,6.80
2023-04-04T20:59:49.448Z,6.86
2023-04-04T21:02:20.795Z,6.68
2023-04-04T21:04:50.113Z,6.75
2023-04-04T21:07:34.519Z,6.88
2023-04-04T21:10:01.079Z,6.88
2023-04-04T21:12:27.846Z,6.70
2023-04-04T21:14:55.017Z,6.73
2023-04-04T21:17:22.938Z,6.86
2023-04-04T21:19:50.260Z,6.82
2023-04-04T21:22:17.234Z,6.70
2023-04-04T21:24:43.671Z,6.77
2023-04-04T21:27:30.109Z,6.47
2023-04-04T21:29:56.722Z,6.36
2023-04-04T21:32:24.142Z,6.45
2023-04-04T21:34:51.030Z,6.38
2023-04-04T21:37:17.488Z,6.58
2023-04-04T21:39:45.608Z,6.45
2023-04-04T21:42:11.920Z,6.33
2023-04-04T21:44:38.689Z,6.47
2023-04-04T21:47:05.166Z,6.46
2023-04-04T21:49:31.604Z,6.38
2023-04-04T21:51:58.141Z,6.38
2023-04-04T21:54:24.612Z,6.26
2023-04-04T21:56:50.991Z,6.18
2023-04-04T21:59:18.269Z,6.02
2023-04-04T22:01:44.999Z,6.00
2023-04-04T22:04:12.666Z,6.09
2023-04-04T22:06:39.335Z,6.43
2023-04-04T22:09:06.744Z,6.21
2023-04-04T22:11:34.816Z,6.21
2023-04-04T22:14:05.011Z,5.96
2023-04-04T22:16:32.824Z,5.96
2023-04-04T22:19:01.699Z,6.09
2023-04-04T22:21:28.417Z,5.91
2023-04-04T22:24:00.781Z,5.90
2023-04-04T22:26:35.163Z,5.91
2023-04-04T22:29:03.949Z,6.06
2023-04-04T22:31:31.215Z,6.08
2023-04-04T22:33:58.241Z,6.07
2023-04-04T22:36:27.724Z,6.02
2023-04-04T22:38:57.991Z,6.10
2023-04-04T22:41:28.663Z,6.08
2023-04-04T22:43:56.403Z,6.20
2023-04-04T22:46:23.270Z,6.08
2023-04-04T22:48:50.264Z,5.89
2023-04-04T22:51:17.458Z,5.86
2023-04-04T22:53:45.691Z,5.99
2023-04-04T22:56:12.230Z,5.70
2023-04-04T22:58:38.937Z,5.51
2023-04-04T23:01:05.640Z,5.49
2023-04-04T23:03:32.633Z,5.52
2023-04-04T23:05:59.243Z,5.47
2023-04-04T23:08:26.012Z,5.43
2023-04-04T23:10:52.558Z,5.63
2023-04-04T23:13:19.205Z,5.46
2023-04-04T23:15:45.604Z,5.51
2023-04-04T23:18:13.288Z,5.53
2023-04-04T23:20:40.240Z,5.61
2023-04-04T23:23:08.040Z,5.41
2023-04-04T23:25:34.659Z,5.38
2023-04-04T23:28:01.120Z,5.50
2023-04-04T23:30:28.580Z,5.49
2023-04-04T23:32:55.018Z,5.36
2023-04-04T23:35:22.445Z,5.20
2023-04-04T23:37:49.169Z,5.31
2023-04-04T23:40:15.752Z,5.41
2023-04-04T23:42:42.588Z,5.45
2023-04-04T23:45:10.128Z,5.53
2023-04-04T23:47:37.225Z,5.30
2023-04-04T23:50:04.213Z,5.17
2023-04-04T23:52:30.915Z,5.10
2023-04-04T23:54:57.749Z,5.09
2023-04-04T23:57:24.541Z,5.06
2023-04-04T23:59:51.084Z,5.12
